sensor_id;sensor_type;location;lat;lon;timestamp;P1;durP1;ratioP1;P2;durP2;ratioP2
21816;SDS011;13247;47.504;7.382;2023-06-04T00:00:16;11.45;;;6.30;;
21816;SDS011;13247;47.504;7.382;2023-06-04T00:03:01;15.23;;;6.78;;
21816;SDS011;13247;47.504;7.382;2023-06-04T00:05:45;12.80;;;6.82;;
21816;SDS011;13247;47.504;7.382;2023-06-04T00:08:31;9.57;;;6.28;;
21816;SDS011;13247;47.504;7.382;2023-06-04T00:11:15;11.43;;;7.07;;
21816;SDS011;13247;47.504;7.382;2023-06-04T00:14:00;10.75;;;6.80;;
21816;SDS011;13247;47.504;7.382;2023-06-04T00:16:45;10.10;;;6.03;;
21816;SDS011;13247;47.504;7.382;2023-06-04T00:19:29;12.63;;;6.90;;
21816;SDS011;13247;47.504;7.382;2023-06-04T00:22:14;9.30;;;6.60;;
21816;SDS011;13247;47.504;7.382;2023-06-04T00:24:59;9.48;;;6.50;;
21816;SDS011;13247;47.504;7.382;2023-06-04T00:27:43;10.48;;;6.38;;
21816;SDS011;13247;47.504;7.382;2023-06-04T00:30:28;9.70;;;6.47;;
21816;SDS011;13247;47.504;7.382;2023-06-04T00:33:13;11.57;;;7.30;;
21816;SDS011;13247;47.504;7.382;2023-06-04T00:35:58;8.55;;;5.93;;
21816;SDS011;13247;47.504;7.382;2023-06-04T00:38:42;11.38;;;7.28;;
21816;SDS011;13247;47.504;7.382;2023-06-04T00:41:27;11.13;;;6.40;;
21816;SDS011;13247;47.504;7.382;2023-06-04T00:44:12;10.00;;;6.57;;
21816;SDS011;13247;47.504;7.382;2023-06-04T00:46:56;13.50;;;7.30;;
21816;SDS011;13247;47.504;7.382;2023-06-04T00:49:41;9.45;;;6.80;;
21816;SDS011;13247;47.504;7.382;2023-06-04T00:52:26;12.68;;;6.50;;
21816;SDS011;13247;47.504;7.382;2023-06-04T00:55:12;11.52;;;6.93;;
21816;SDS011;13247;47.504;7.382;2023-06-04T00:57:57;11.27;;;6.97;;
21816;SDS011;13247;47.504;7.382;2023-06-04T01:00:42;12.43;;;7.22;;
21816;SDS011;13247;47.504;7.382;2023-06-04T01:03:28;10.02;;;7.00;;
21816;SDS011;13247;47.504;7.382;2023-06-04T01:06:21;10.23;;;7.05;;
21816;SDS011;13247;47.504;7.382;2023-06-04T01:09:08;10.63;;;6.40;;
21816;SDS011;13247;47.504;7.382;2023-06-04T01:11:54;10.02;;;6.10;;
21816;SDS011;13247;47.504;7.382;2023-06-04T01:14:42;10.95;;;6.45;;
21816;SDS011;13247;47.504;7.382;2023-06-04T01:17:46;9.52;;;6.22;;
21816;SDS011;13247;47.504;7.382;2023-06-04T01:20:39;12.73;;;7.00;;
21816;SDS011;13247;47.504;7.382;2023-06-04T01:26:42;10.02;;;6.65;;
21816;SDS011;13247;47.504;7.382;2023-06-04T01:29:27;12.90;;;6.93;;
21816;SDS011;13247;47.504;7.382;2023-06-04T01:32:13;13.77;;;7.57;;
21816;SDS011;13247;47.504;7.382;2023-06-04T01:34:58;11.18;;;7.70;;
21816;SDS011;13247;47.504;7.382;2023-06-04T01:37:43;10.32;;;6.80;;
21816;SDS011;13247;47.504;7.382;2023-06-04T01:40:28;15.98;;;7.03;;
21816;SDS011;13247;47.504;7.382;2023-06-04T01:43:13;18.20;;;7.53;;
21816;SDS011;13247;47.504;7.382;2023-06-04T01:45:58;10.05;;;7.07;;
21816;SDS011;13247;47.504;7.382;2023-06-04T01:48:43;12.55;;;6.53;;
21816;SDS011;13247;47.504;7.382;2023-06-04T01:51:32;11.27;;;6.93;;
21816;SDS011;13247;47.504;7.382;2023-06-04T01:54:17;12.20;;;7.00;;
21816;SDS011;13247;47.504;7.382;2023-06-04T01:57:01;10.70;;;6.68;;
21816;SDS011;13247;47.504;7.382;2023-06-04T01:59:47;12.75;;;7.25;;
21816;SDS011;13247;47.504;7.382;2023-06-04T02:02:32;10.65;;;6.65;;
21816;SDS011;13247;47.504;7.382;2023-06-04T02:05:17;9.27;;;6.47;;
21816;SDS011;13247;47.504;7.382;2023-06-04T02:08:02;10.27;;;6.78;;
21816;SDS011;13247;47.504;7.382;2023-06-04T02:10:48;10.85;;;6.93;;
21816;SDS011;13247;47.504;7.382;2023-06-04T02:13:32;12.85;;;7.20;;
21816;SDS011;13247;47.504;7.382;2023-06-04T02:16:18;14.55;;;7.20;;
21816;SDS011;13247;47.504;7.382;2023-06-04T02:19:03;9.13;;;6.57;;
21816;SDS011;13247;47.504;7.382;2023-06-04T02:21:48;9.00;;;6.38;;
21816;SDS011;13247;47.504;7.382;2023-06-04T02:24:33;12.10;;;6.93;;
21816;SDS011;13247;47.504;7.382;2023-06-04T02:27:17;11.57;;;7.05;;
21816;SDS011;13247;47.504;7.382;2023-06-04T02:30:02;11.38;;;7.28;;
21816;SDS011;13247;47.504;7.382;2023-06-04T02:32:49;9.23;;;6.18;;
21816;SDS011;13247;47.504;7.382;2023-06-04T02:35:34;9.85;;;6.85;;
21816;SDS011;13247;47.504;7.382;2023-06-04T02:38:19;13.30;;;6.47;;
21816;SDS011;13247;47.504;7.382;2023-06-04T02:41:04;13.18;;;7.28;;
21816;SDS011;13247;47.504;7.382;2023-06-04T02:43:49;10.25;;;7.10;;
21816;SDS011;13247;47.504;7.382;2023-06-04T02:46:33;10.93;;;7.15;;
21816;SDS011;13247;47.504;7.382;2023-06-04T02:49:18;10.65;;;7.15;;
21816;SDS011;13247;47.504;7.382;2023-06-04T02:52:02;14.93;;;7.43;;
21816;SDS011;13247;47.504;7.382;2023-06-04T02:54:47;15.02;;;7.15;;
21816;SDS011;13247;47.504;7.382;2023-06-04T02:57:33;16.80;;;7.50;;
21816;SDS011;13247;47.504;7.382;2023-06-04T03:00:18;13.30;;;7.15;;
21816;SDS011;13247;47.504;7.382;2023-06-04T03:03:03;11.45;;;7.40;;
21816;SDS011;13247;47.504;7.382;2023-06-04T03:05:47;12.35;;;7.88;;
21816;SDS011;13247;47.504;7.382;2023-06-04T03:08:32;15.63;;;8.40;;
21816;SDS011;13247;47.504;7.382;2023-06-04T03:11:17;10.38;;;6.95;;
21816;SDS011;13247;47.504;7.382;2023-06-04T03:14:05;8.98;;;6.70;;
21816;SDS011;13247;47.504;7.382;2023-06-04T03:16:50;11.88;;;6.63;;
21816;SDS011;13247;47.504;7.382;2023-06-04T03:19:36;11.55;;;6.55;;
21816;SDS011;13247;47.504;7.382;2023-06-04T03:22:21;11.07;;;6.72;;
21816;SDS011;13247;47.504;7.382;2023-06-04T03:25:06;19.02;;;6.05;;
21816;SDS011;13247;47.504;7.382;2023-06-04T03:27:51;20.13;;;6.90;;
21816;SDS011;13247;47.504;7.382;2023-06-04T03:30:36;16.73;;;8.07;;
21816;SDS011;13247;47.504;7.382;2023-06-04T03:33:20;20.83;;;7.80;;
21816;SDS011;13247;47.504;7.382;2023-06-04T03:36:05;20.30;;;7.80;;
21816;SDS011;13247;47.504;7.382;2023-06-04T03:38:49;19.42;;;7.45;;
21816;SDS011;13247;47.504;7.382;2023-06-04T03:41:34;14.32;;;7.00;;
21816;SDS011;13247;47.504;7.382;2023-06-04T03:44:19;13.43;;;6.82;;
21816;SDS011;13247;47.504;7.382;2023-06-04T03:47:03;10.20;;;6.65;;
21816;SDS011;13247;47.504;7.382;2023-06-04T03:49:48;11.75;;;7.38;;
21816;SDS011;13247;47.504;7.382;2023-06-04T03:52:32;11.15;;;7.10;;
21816;SDS011;13247;47.504;7.382;2023-06-04T03:55:17;11.70;;;7.30;;
21816;SDS011;13247;47.504;7.382;2023-06-04T03:58:02;8.75;;;6.68;;
21816;SDS011;13247;47.504;7.382;2023-06-04T04:00:46;10.00;;;6.75;;
21816;SDS011;13247;47.504;7.382;2023-06-04T04:03:31;18.35;;;7.40;;
21816;SDS011;13247;47.504;7.382;2023-06-04T04:06:18;12.57;;;7.20;;
21816;SDS011;13247;47.504;7.382;2023-06-04T04:09:04;10.55;;;6.90;;
21816;SDS011;13247;47.504;7.382;2023-06-04T04:11:50;10.00;;;7.00;;
21816;SDS011;13247;47.504;7.382;2023-06-04T04:14:34;12.35;;;8.02;;
21816;SDS011;13247;47.504;7.382;2023-06-04T04:17:19;10.23;;;7.93;;
21816;SDS011;13247;47.504;7.382;2023-06-04T04:20:04;12.43;;;8.48;;
21816;SDS011;13247;47.504;7.382;2023-06-04T04:22:49;13.45;;;8.15;;
21816;SDS011;13247;47.504;7.382;2023-06-04T04:25:33;13.35;;;7.80;;
21816;SDS011;13247;47.504;7.382;2023-06-04T04:28:18;15.70;;;7.85;;
21816;SDS011;13247;47.504;7.382;2023-06-04T04:31:03;11.35;;;6.75;;
21816;SDS011;13247;47.504;7.382;2023-06-04T04:33:50;10.57;;;6.85;;
21816;SDS011;13247;47.504;7.382;2023-06-04T04:36:35;12.45;;;7.00;;
21816;SDS011;13247;47.504;7.382;2023-06-04T04:39:23;12.07;;;7.57;;
21816;SDS011;13247;47.504;7.382;2023-06-04T04:42:09;12.93;;;7.55;;
21816;SDS011;13247;47.504;7.382;2023-06-04T04:44:54;9.77;;;6.90;;
21816;SDS011;13247;47.504;7.382;2023-06-04T04:47:38;10.23;;;7.03;;
21816;SDS011;13247;47.504;7.382;2023-06-04T04:50:22;11.13;;;7.05;;
21816;SDS011;13247;47.504;7.382;2023-06-04T04:53:07;12.00;;;6.53;;
21816;SDS011;13247;47.504;7.382;2023-06-04T04:55:52;11.23;;;7.05;;
21816;SDS011;13247;47.504;7.382;2023-06-04T04:58:36;9.30;;;6.28;;
21816;SDS011;13247;47.504;7.382;2023-06-04T05:01:21;14.20;;;8.10;;
21816;SDS011;13247;47.504;7.382;2023-06-04T05:04:07;13.27;;;7.25;;
21816;SDS011;13247;47.504;7.382;2023-06-04T05:06:52;12.65;;;7.65;;
21816;SDS011;13247;47.504;7.382;2023-06-04T05:09:37;17.15;;;8.05;;
21816;SDS011;13247;47.504;7.382;2023-06-04T05:12:21;19.88;;;7.60;;
21816;SDS011;13247;47.504;7.382;2023-06-04T05:15:08;12.18;;;7.47;;
21816;SDS011;13247;47.504;7.382;2023-06-04T05:17:55;13.98;;;7.63;;
21816;SDS011;13247;47.504;7.382;2023-06-04T05:20:40;12.02;;;7.10;;
21816;SDS011;13247;47.504;7.382;2023-06-04T05:23:24;11.27;;;6.78;;
21816;SDS011;13247;47.504;7.382;2023-06-04T05:29:06;11.55;;;7.28;;
21816;SDS011;13247;47.504;7.382;2023-06-04T05:31:51;11.73;;;7.57;;
21816;SDS011;13247;47.504;7.382;2023-06-04T05:34:36;13.68;;;8.20;;
21816;SDS011;13247;47.504;7.382;2023-06-04T05:37:23;12.57;;;7.28;;
21816;SDS011;13247;47.504;7.382;2023-06-04T05:40:12;9.73;;;7.15;;
21816;SDS011;13247;47.504;7.382;2023-06-04T05:42:58;16.52;;;8.20;;
21816;SDS011;13247;47.504;7.382;2023-06-04T05:45:42;12.02;;;7.63;;
21816;SDS011;13247;47.504;7.382;2023-06-04T05:48:27;12.93;;;8.55;;
21816;SDS011;13247;47.504;7.382;2023-06-04T05:51:15;12.77;;;7.32;;
21816;SDS011;13247;47.504;7.382;2023-06-04T05:54:00;13.93;;;6.63;;
21816;SDS011;13247;47.504;7.382;2023-06-04T05:56:45;14.65;;;7.20;;
21816;SDS011;13247;47.504;7.382;2023-06-04T05:59:30;11.57;;;7.57;;
21816;SDS011;13247;47.504;7.382;2023-06-04T06:02:15;9.43;;;7.32;;
21816;SDS011;13247;47.504;7.382;2023-06-04T06:05:00;13.02;;;8.02;;
21816;SDS011;13247;47.504;7.382;2023-06-04T06:07:45;15.02;;;8.30;;
21816;SDS011;13247;47.504;7.382;2023-06-04T06:10:30;11.60;;;6.50;;
21816;SDS011;13247;47.504;7.382;2023-06-04T06:13:15;12.60;;;7.75;;
21816;SDS011;13247;47.504;7.382;2023-06-04T06:15:59;13.30;;;7.15;;
21816;SDS011;13247;47.504;7.382;2023-06-04T06:18:44;11.27;;;6.35;;
21816;SDS011;13247;47.504;7.382;2023-06-04T06:21:28;12.15;;;7.38;;
21816;SDS011;13247;47.504;7.382;2023-06-04T06:24:13;14.23;;;6.82;;
21816;SDS011;13247;47.504;7.382;2023-06-04T06:26:57;9.88;;;5.43;;
21816;SDS011;13247;47.504;7.382;2023-06-04T06:29:43;8.82;;;6.07;;
21816;SDS011;13247;47.504;7.382;2023-06-04T06:32:28;11.02;;;6.22;;
21816;SDS011;13247;47.504;7.382;2023-06-04T06:35:12;14.95;;;6.50;;
21816;SDS011;13247;47.504;7.382;2023-06-04T06:37:57;10.48;;;6.40;;
21816;SDS011;13247;47.504;7.382;2023-06-04T06:40:41;8.73;;;5.80;;
21816;SDS011;13247;47.504;7.382;2023-06-04T06:43:27;9.52;;;4.68;;
21816;SDS011;13247;47.504;7.382;2023-06-04T06:46:12;8.15;;;4.63;;
21816;SDS011;13247;47.504;7.382;2023-06-04T06:48:56;7.28;;;4.35;;
21816;SDS011;13247;47.504;7.382;2023-06-04T06:51:41;7.28;;;4.20;;
21816;SDS011;13247;47.504;7.382;2023-06-04T06:54:26;6.10;;;3.70;;
21816;SDS011;13247;47.504;7.382;2023-06-04T06:57:11;9.07;;;4.15;;
21816;SDS011;13247;47.504;7.382;2023-06-04T06:59:56;7.13;;;4.28;;
21816;SDS011;13247;47.504;7.382;2023-06-04T07:02:41;10.10;;;4.50;;
21816;SDS011;13247;47.504;7.382;2023-06-04T07:05:26;10.50;;;3.95;;
21816;SDS011;13247;47.504;7.382;2023-06-04T07:08:11;5.70;;;4.18;;
21816;SDS011;13247;47.504;7.382;2023-06-04T07:10:55;7.93;;;4.40;;
21816;SDS011;13247;47.504;7.382;2023-06-04T07:13:40;7.60;;;4.38;;
21816;SDS011;13247;47.504;7.382;2023-06-04T07:16:24;5.60;;;4.40;;
21816;SDS011;13247;47.504;7.382;2023-06-04T07:19:09;8.13;;;4.68;;
21816;SDS011;13247;47.504;7.382;2023-06-04T07:21:54;5.80;;;4.05;;
21816;SDS011;13247;47.504;7.382;2023-06-04T07:24:39;8.07;;;4.50;;
21816;SDS011;13247;47.504;7.382;2023-06-04T07:27:23;9.82;;;4.93;;
21816;SDS011;13247;47.504;7.382;2023-06-04T07:30:09;6.70;;;4.60;;
21816;SDS011;13247;47.504;7.382;2023-06-04T07:32:54;7.10;;;4.65;;
21816;SDS011;13247;47.504;7.382;2023-06-04T07:35:39;9.75;;;4.25;;
21816;SDS011;13247;47.504;7.382;2023-06-04T07:38:23;8.27;;;4.68;;
21816;SDS011;13247;47.504;7.382;2023-06-04T07:42:21;8.63;;;5.65;;
21816;SDS011;13247;47.504;7.382;2023-06-04T07:45:06;8.10;;;4.60;;
21816;SDS011;13247;47.504;7.382;2023-06-04T07:47:51;6.78;;;4.78;;
21816;SDS011;13247;47.504;7.382;2023-06-04T07:50:36;7.93;;;4.43;;
21816;SDS011;13247;47.504;7.382;2023-06-04T07:53:21;7.60;;;4.85;;
21816;SDS011;13247;47.504;7.382;2023-06-04T07:56:05;9.82;;;5.40;;
21816;SDS011;13247;47.504;7.382;2023-06-04T07:58:50;8.05;;;4.78;;
21816;SDS011;13247;47.504;7.382;2023-06-04T08:01:35;10.25;;;4.47;;
21816;SDS011;13247;47.504;7.382;2023-06-04T08:04:20;9.10;;;4.63;;
21816;SDS011;13247;47.504;7.382;2023-06-04T08:07:05;9.90;;;4.60;;
21816;SDS011;13247;47.504;7.382;2023-06-04T08:09:49;9.80;;;5.10;;
21816;SDS011;13247;47.504;7.382;2023-06-04T08:12:35;10.40;;;5.53;;
21816;SDS011;13247;47.504;7.382;2023-06-04T08:15:19;8.18;;;5.15;;
21816;SDS011;13247;47.504;7.382;2023-06-04T08:18:04;9.05;;;4.97;;
21816;SDS011;13247;47.504;7.382;2023-06-04T08:20:49;8.73;;;5.28;;
21816;SDS011;13247;47.504;7.382;2023-06-04T08:23:34;9.30;;;5.30;;
21816;SDS011;13247;47.504;7.382;2023-06-04T08:26:19;9.23;;;5.57;;
21816;SDS011;13247;47.504;7.382;2023-06-04T08:29:03;9.32;;;5.40;;
21816;SDS011;13247;47.504;7.382;2023-06-04T08:31:48;13.57;;;5.85;;
21816;SDS011;13247;47.504;7.382;2023-06-04T08:34:33;9.52;;;5.70;;
21816;SDS011;13247;47.504;7.382;2023-06-04T08:37:18;7.88;;;5.07;;
21816;SDS011;13247;47.504;7.382;2023-06-04T08:40:03;12.63;;;5.53;;
21816;SDS011;13247;47.504;7.382;2023-06-04T08:42:50;12.25;;;6.18;;
21816;SDS011;13247;47.504;7.382;2023-06-04T08:45:41;11.07;;;4.75;;
21816;SDS011;13247;47.504;7.382;2023-06-04T08:48:32;7.25;;;4.82;;
21816;SDS011;13247;47.504;7.382;2023-06-04T08:51:17;9.85;;;5.25;;
21816;SDS011;13247;47.504;7.382;2023-06-04T08:54:06;12.30;;;5.43;;
21816;SDS011;13247;47.504;7.382;2023-06-04T08:56:52;12.07;;;5.78;;
21816;SDS011;13247;47.504;7.382;2023-06-04T08:59:41;8.27;;;5.13;;
21816;SDS011;13247;47.504;7.382;2023-06-04T09:02:27;10.10;;;5.50;;
21816;SDS011;13247;47.504;7.382;2023-06-04T09:05:20;10.63;;;5.85;;
21816;SDS011;13247;47.504;7.382;2023-06-04T09:10:53;9.68;;;5.85;;
21816;SDS011;13247;47.504;7.382;2023-06-04T09:13:38;10.55;;;5.72;;
21816;SDS011;13247;47.504;7.382;2023-06-04T09:16:27;9.30;;;6.45;;
21816;SDS011;13247;47.504;7.382;2023-06-04T09:19:19;10.07;;;6.40;;
21816;SDS011;13247;47.504;7.382;2023-06-04T09:22:05;10.30;;;5.75;;
21816;SDS011;13247;47.504;7.382;2023-06-04T09:24:49;12.50;;;6.53;;
21816;SDS011;13247;47.504;7.382;2023-06-04T09:27:39;11.27;;;5.47;;
21816;SDS011;13247;47.504;7.382;2023-06-04T09:30:24;10.48;;;5.75;;
21816;SDS011;13247;47.504;7.382;2023-06-04T09:33:09;10.07;;;5.70;;
21816;SDS011;13247;47.504;7.382;2023-06-04T09:35:56;8.50;;;5.07;;
21816;SDS011;13247;47.504;7.382;2023-06-04T09:38:41;11.55;;;5.40;;
21816;SDS011;13247;47.504;7.382;2023-06-04T09:41:26;10.07;;;6.50;;
21816;SDS011;13247;47.504;7.382;2023-06-04T09:44:11;13.70;;;6.53;;
21816;SDS011;13247;47.504;7.382;2023-06-04T09:46:56;10.40;;;5.72;;
21816;SDS011;13247;47.504;7.382;2023-06-04T09:49:41;9.05;;;5.30;;
21816;SDS011;13247;47.504;7.382;2023-06-04T09:52:33;9.57;;;5.90;;
21816;SDS011;13247;47.504;7.382;2023-06-04T09:55:18;9.35;;;4.70;;
21816;SDS011;13247;47.504;7.382;2023-06-04T09:58:05;8.93;;;5.55;;
21816;SDS011;13247;47.504;7.382;2023-06-04T10:00:52;8.23;;;6.00;;
21816;SDS011;13247;47.504;7.382;2023-06-04T10:03:39;8.02;;;5.30;;
21816;SDS011;13247;47.504;7.382;2023-06-04T10:06:33;9.82;;;5.22;;
21816;SDS011;13247;47.504;7.382;2023-06-04T10:09:19;9.63;;;5.72;;
21816;SDS011;13247;47.504;7.382;2023-06-04T10:12:06;8.25;;;5.78;;
21816;SDS011;13247;47.504;7.382;2023-06-04T10:14:53;8.75;;;5.47;;
21816;SDS011;13247;47.504;7.382;2023-06-04T10:17:49;10.35;;;5.65;;
21816;SDS011;13247;47.504;7.382;2023-06-04T10:20:35;8.15;;;5.35;;
21816;SDS011;13247;47.504;7.382;2023-06-04T10:23:21;10.35;;;5.80;;
21816;SDS011;13247;47.504;7.382;2023-06-04T10:26:07;9.68;;;5.60;;
21816;SDS011;13247;47.504;7.382;2023-06-04T10:28:52;8.38;;;5.43;;
21816;SDS011;13247;47.504;7.382;2023-06-04T10:31:38;14.52;;;5.57;;
21816;SDS011;13247;47.504;7.382;2023-06-04T10:34:26;10.90;;;6.03;;
21816;SDS011;13247;47.504;7.382;2023-06-04T10:37:24;10.85;;;5.47;;
21816;SDS011;13247;47.504;7.382;2023-06-04T10:40:09;7.38;;;5.13;;
21816;SDS011;13247;47.504;7.382;2023-06-04T10:42:54;10.70;;;5.68;;
21816;SDS011;13247;47.504;7.382;2023-06-04T10:45:40;8.15;;;5.15;;
21816;SDS011;13247;47.504;7.382;2023-06-04T10:48:25;10.13;;;5.40;;
21816;SDS011;13247;47.504;7.382;2023-06-04T10:51:09;8.45;;;5.00;;
21816;SDS011;13247;47.504;7.382;2023-06-04T10:53:54;7.93;;;5.22;;
21816;SDS011;13247;47.504;7.382;2023-06-04T10:56:39;14.20;;;5.15;;
21816;SDS011;13247;47.504;7.382;2023-06-04T10:59:24;9.10;;;5.53;;
21816;SDS011;13247;47.504;7.382;2023-06-04T11:02:08;7.07;;;5.40;;
21816;SDS011;13247;47.504;7.382;2023-06-04T11:05:03;7.50;;;5.40;;
21816;SDS011;13247;47.504;7.382;2023-06-04T11:07:50;8.68;;;4.97;;
21816;SDS011;13247;47.504;7.382;2023-06-04T11:10:37;8.43;;;4.28;;
21816;SDS011;13247;47.504;7.382;2023-06-04T11:13:24;7.72;;;4.53;;
21816;SDS011;13247;47.504;7.382;2023-06-04T11:16:16;8.60;;;4.75;;
21816;SDS011;13247;47.504;7.382;2023-06-04T11:19:01;11.30;;;5.30;;
21816;SDS011;13247;47.504;7.382;2023-06-04T11:21:47;10.07;;;5.78;;
21816;SDS011;13247;47.504;7.382;2023-06-04T11:24:33;10.52;;;5.68;;
21816;SDS011;13247;47.504;7.382;2023-06-04T11:27:18;13.20;;;5.30;;
21816;SDS011;13247;47.504;7.382;2023-06-04T11:30:06;9.48;;;5.35;;
21816;SDS011;13247;47.504;7.382;2023-06-04T11:33:04;11.07;;;5.03;;
21816;SDS011;13247;47.504;7.382;2023-06-04T11:35:49;5.93;;;4.32;;
21816;SDS011;13247;47.504;7.382;2023-06-04T11:38:34;8.73;;;4.75;;
21816;SDS011;13247;47.504;7.382;2023-06-04T11:41:19;7.63;;;4.53;;
21816;SDS011;13247;47.504;7.382;2023-06-04T11:44:05;8.68;;;4.43;;
21816;SDS011;13247;47.504;7.382;2023-06-04T11:46:50;7.40;;;4.75;;
21816;SDS011;13247;47.504;7.382;2023-06-04T11:49:35;7.75;;;4.40;;
21816;SDS011;13247;47.504;7.382;2023-06-04T11:52:20;9.15;;;4.40;;
21816;SDS011;13247;47.504;7.382;2023-06-04T11:55:12;7.22;;;3.88;;
21816;SDS011;13247;47.504;7.382;2023-06-04T11:57:58;9.68;;;4.53;;
21816;SDS011;13247;47.504;7.382;2023-06-04T12:00:43;5.50;;;3.78;;
21816;SDS011;13247;47.504;7.382;2023-06-04T12:06:49;6.38;;;3.83;;
21816;SDS011;13247;47.504;7.382;2023-06-04T12:09:41;13.75;;;4.65;;
21816;SDS011;13247;47.504;7.382;2023-06-04T12:12:26;6.25;;;4.20;;
21816;SDS011;13247;47.504;7.382;2023-06-04T12:15:12;5.72;;;4.13;;
21816;SDS011;13247;47.504;7.382;2023-06-04T12:18:03;6.30;;;4.50;;
21816;SDS011;13247;47.504;7.382;2023-06-04T12:20:48;6.28;;;4.43;;
21816;SDS011;13247;47.504;7.382;2023-06-04T12:23:33;8.68;;;4.30;;
21816;SDS011;13247;47.504;7.382;2023-06-04T12:26:21;6.47;;;4.15;;
21816;SDS011;13247;47.504;7.382;2023-06-04T12:29:13;6.15;;;3.58;;
21816;SDS011;13247;47.504;7.382;2023-06-04T12:32:02;6.43;;;4.47;;
21816;SDS011;13247;47.504;7.382;2023-06-04T12:34:48;7.78;;;4.40;;
21816;SDS011;13247;47.504;7.382;2023-06-04T12:37:33;7.88;;;4.18;;
21816;SDS011;13247;47.504;7.382;2023-06-04T12:40:18;6.18;;;3.88;;
21816;SDS011;13247;47.504;7.382;2023-06-04T12:43:02;7.00;;;4.28;;
21816;SDS011;13247;47.504;7.382;2023-06-04T12:45:49;7.20;;;4.45;;
21816;SDS011;13247;47.504;7.382;2023-06-04T12:48:33;6.60;;;3.67;;
21816;SDS011;13247;47.504;7.382;2023-06-04T12:51:18;7.40;;;4.35;;
21816;SDS011;13247;47.504;7.382;2023-06-04T12:54:04;8.45;;;4.43;;
21816;SDS011;13247;47.504;7.382;2023-06-04T12:56:49;7.60;;;3.90;;
21816;SDS011;13247;47.504;7.382;2023-06-04T12:59:34;5.70;;;4.20;;
21816;SDS011;13247;47.504;7.382;2023-06-04T13:02:18;7.80;;;4.55;;
21816;SDS011;13247;47.504;7.382;2023-06-04T13:05:04;8.75;;;4.40;;
21816;SDS011;13247;47.504;7.382;2023-06-04T13:07:49;5.95;;;3.95;;
21816;SDS011;13247;47.504;7.382;2023-06-04T13:10:35;5.10;;;3.88;;
21816;SDS011;13247;47.504;7.382;2023-06-04T13:13:19;5.20;;;3.80;;
21816;SDS011;13247;47.504;7.382;2023-06-04T13:16:04;9.45;;;4.13;;
21816;SDS011;13247;47.504;7.382;2023-06-04T13:18:49;7.85;;;4.65;;
21816;SDS011;13247;47.504;7.382;2023-06-04T13:21:34;10.15;;;4.82;;
21816;SDS011;13247;47.504;7.382;2023-06-04T13:24:19;6.72;;;4.45;;
21816;SDS011;13247;47.504;7.382;2023-06-04T13:27:04;9.30;;;4.13;;
21816;SDS011;13247;47.504;7.382;2023-06-04T13:29:49;6.28;;;3.95;;
21816;SDS011;13247;47.504;7.382;2023-06-04T13:32:33;6.40;;;4.28;;
21816;SDS011;13247;47.504;7.382;2023-06-04T13:35:18;4.97;;;4.00;;
21816;SDS011;13247;47.504;7.382;2023-06-04T13:38:04;15.65;;;4.25;;
21816;SDS011;13247;47.504;7.382;2023-06-04T13:40:49;6.32;;;4.25;;
21816;SDS011;13247;47.504;7.382;2023-06-04T13:43:35;7.40;;;4.45;;
21816;SDS011;13247;47.504;7.382;2023-06-04T13:46:19;6.28;;;4.25;;
21816;SDS011;13247;47.504;7.382;2023-06-04T13:49:04;6.60;;;4.57;;
21816;SDS011;13247;47.504;7.382;2023-06-04T13:51:49;7.82;;;4.45;;
21816;SDS011;13247;47.504;7.382;2023-06-04T13:54:33;7.20;;;4.40;;
21816;SDS011;13247;47.504;7.382;2023-06-04T13:57:18;7.72;;;4.68;;
21816;SDS011;13247;47.504;7.382;2023-06-04T14:00:02;5.50;;;3.80;;
21816;SDS011;13247;47.504;7.382;2023-06-04T14:02:48;6.32;;;4.10;;
21816;SDS011;13247;47.504;7.382;2023-06-04T14:05:33;6.80;;;4.35;;
21816;SDS011;13247;47.504;7.382;2023-06-04T14:08:17;8.95;;;4.13;;
21816;SDS011;13247;47.504;7.382;2023-06-04T14:11:02;6.50;;;3.97;;
21816;SDS011;13247;47.504;7.382;2023-06-04T14:13:46;8.00;;;4.60;;
21816;SDS011;13247;47.504;7.382;2023-06-04T14:16:31;7.93;;;4.30;;
21816;SDS011;13247;47.504;7.382;2023-06-04T14:19:16;6.22;;;4.30;;
21816;SDS011;13247;47.504;7.382;2023-06-04T14:22:01;5.50;;;3.90;;
21816;SDS011;13247;47.504;7.382;2023-06-04T14:24:46;8.13;;;4.18;;
21816;SDS011;13247;47.504;7.382;2023-06-04T14:27:30;7.68;;;4.43;;
21816;SDS011;13247;47.504;7.382;2023-06-04T14:30:16;6.65;;;4.18;;
21816;SDS011;13247;47.504;7.382;2023-06-04T14:33:01;8.82;;;3.80;;
21816;SDS011;13247;47.504;7.382;2023-06-04T14:35:46;6.15;;;4.13;;
21816;SDS011;13247;47.504;7.382;2023-06-04T14:38:30;6.57;;;4.30;;
21816;SDS011;13247;47.504;7.382;2023-06-04T14:41:15;7.82;;;4.22;;
21816;SDS011;13247;47.504;7.382;2023-06-04T14:44:00;6.15;;;4.13;;
21816;SDS011;13247;47.504;7.382;2023-06-04T14:46:45;7.13;;;3.95;;
21816;SDS011;13247;47.504;7.382;2023-06-04T14:49:30;6.10;;;3.50;;
21816;SDS011;13247;47.504;7.382;2023-06-04T14:52:15;6.70;;;3.88;;
21816;SDS011;13247;47.504;7.382;2023-06-04T14:55:00;7.20;;;4.75;;
21816;SDS011;13247;47.504;7.382;2023-06-04T14:57:44;10.80;;;4.20;;
21816;SDS011;13247;47.504;7.382;2023-06-04T15:00:28;5.05;;;4.20;;
21816;SDS011;13247;47.504;7.382;2023-06-04T15:03:14;4.35;;;3.72;;
21816;SDS011;13247;47.504;7.382;2023-06-04T15:05:58;5.97;;;3.95;;
21816;SDS011;13247;47.504;7.382;2023-06-04T15:08:43;5.60;;;3.60;;
21816;SDS011;13247;47.504;7.382;2023-06-04T15:11:27;5.15;;;3.65;;
21816;SDS011;13247;47.504;7.382;2023-06-04T15:14:12;5.28;;;3.90;;
21816;SDS011;13247;47.504;7.382;2023-06-04T15:16:57;6.32;;;3.63;;
21816;SDS011;13247;47.504;7.382;2023-06-04T15:19:41;4.88;;;3.75;;
21816;SDS011;13247;47.504;7.382;2023-06-04T15:22:26;5.93;;;4.35;;
21816;SDS011;13247;47.504;7.382;2023-06-04T15:25:11;5.43;;;3.90;;
21816;SDS011;13247;47.504;7.382;2023-06-04T15:27:55;5.68;;;3.80;;
21816;SDS011;13247;47.504;7.382;2023-06-04T15:30:40;5.70;;;4.13;;
21816;SDS011;13247;47.504;7.382;2023-06-04T15:33:25;4.97;;;3.53;;
21816;SDS011;13247;47.504;7.382;2023-06-04T15:36:09;4.50;;;3.47;;
21816;SDS011;13247;47.504;7.382;2023-06-04T15:38:54;6.93;;;4.20;;
21816;SDS011;13247;47.504;7.382;2023-06-04T15:41:39;10.45;;;4.18;;
21816;SDS011;13247;47.504;7.382;2023-06-04T15:44:23;6.88;;;4.38;;
21816;SDS011;13247;47.504;7.382;2023-06-04T15:47:08;10.05;;;4.25;;
21816;SDS011;13247;47.504;7.382;2023-06-04T15:49:53;6.15;;;4.20;;
21816;SDS011;13247;47.504;7.382;2023-06-04T15:52:37;8.95;;;3.78;;
21816;SDS011;13247;47.504;7.382;2023-06-04T15:55:22;5.47;;;4.15;;
21816;SDS011;13247;47.504;7.382;2023-06-04T15:58:07;5.93;;;3.90;;
21816;SDS011;13247;47.504;7.382;2023-06-04T16:00:51;13.02;;;3.92;;
21816;SDS011;13247;47.504;7.382;2023-06-04T16:03:36;6.78;;;3.95;;
21816;SDS011;13247;47.504;7.382;2023-06-04T16:06:21;7.05;;;4.07;;
21816;SDS011;13247;47.504;7.382;2023-06-04T16:09:05;9.63;;;4.15;;
21816;SDS011;13247;47.504;7.382;2023-06-04T16:11:50;9.68;;;4.03;;
21816;SDS011;13247;47.504;7.382;2023-06-04T16:14:35;7.15;;;3.90;;
21816;SDS011;13247;47.504;7.382;2023-06-04T16:17:19;8.65;;;3.90;;
21816;SDS011;13247;47.504;7.382;2023-06-04T16:20:04;7.22;;;3.88;;
21816;SDS011;13247;47.504;7.382;2023-06-04T16:22:49;5.97;;;3.88;;
21816;SDS011;13247;47.504;7.382;2023-06-04T16:25:34;5.63;;;3.80;;
21816;SDS011;13247;47.504;7.382;2023-06-04T16:28:19;5.10;;;4.05;;
21816;SDS011;13247;47.504;7.382;2023-06-04T16:31:04;4.72;;;3.90;;
21816;SDS011;13247;47.504;7.382;2023-06-04T16:33:48;4.68;;;3.72;;
21816;SDS011;13247;47.504;7.382;2023-06-04T16:36:33;6.47;;;3.75;;
21816;SDS011;13247;47.504;7.382;2023-06-04T16:39:20;5.63;;;4.13;;
21816;SDS011;13247;47.504;7.382;2023-06-04T16:42:04;7.30;;;4.10;;